Artemis — PFCB — position and weather

sailwx.info

Track history (hours):
 
Tides and Currents Weather Stations Pressure Air Temp Water Temp Dewpoint Dewpoint Depression Visibility Wind Speed Wind Dir Waves Ship Positions

Artemis (Netherlands)

Ship's website: http://www.tallship-company.com/artemis/gb_artemis.htm

Last reported at 2019-Sep-21 17:28 UTC. Time now 2019-Sep-21 17:43 UTC.
Position N 54°22' E 010°09'.

Length 59 m; draft 3.4 m.

Type: Sailing vessel. MMSI: 244875000.

Date/timePositionNaut miles runAvg speedWind from/ knotsBaromVisibWave heightAir tempDewpointWater temp
2019-Sep-21 17:28N 54°22' E 010°09'0 0.0
2019-Sep-21 16:58N 54°22' E 010°09'0 0.0
2019-Sep-21 16:28N 54°22' E 010°09'0 0.0
2019-Sep-21 15:58N 54°22' E 010°09'0 0.0
2019-Sep-21 15:30N 54°22' E 010°09'2 3.0
2019-Sep-21 15:00N 54°23' E 010°11'3 6.5
2019-Sep-21 14:30N 54°26' E 010°13'3 5.9
2019-Sep-21 14:00N 54°29' E 010°11'3 6.4
2019-Sep-21 13:30N 54°29' E 010°06'3 5.6
2019-Sep-21 13:00N 54°29' E 010°01'1 2.0
2019-Sep-21 12:30N 54°29' E 009°59'1 2.2
2019-Sep-21 12:00N 54°29' E 009°57'1 2.1
2019-Sep-21 11:30N 54°28' E 009°55'1 2.4
2019-Sep-21 11:00N 54°28' E 009°53'1 1.9
2019-Sep-21 10:30N 54°28' E 009°52'1 1.8
2019-Sep-21 10:00N 54°28' E 009°50'0 0.1
2019-Sep-21 09:30N 54°28' E 009°50'0 0.0
2019-Sep-21 09:00N 54°28' E 009°50'0 0.0
2019-Sep-21 08:30N 54°28' E 009°50'0 0.0
2019-Sep-21 08:00N 54°28' E 009°50'0 0.0
2019-Sep-21 07:30N 54°28' E 009°50'0 0.0
2019-Sep-21 07:00N 54°28' E 009°50'0 0.0
2019-Sep-21 06:30N 54°28' E 009°50'0 0.0
2019-Sep-21 06:00N 54°28' E 009°50'0 0.0
2019-Sep-21 05:30N 54°28' E 009°50'0 0.0
2019-Sep-21 05:00N 54°28' E 009°50'0 0.0
2019-Sep-21 04:30N 54°28' E 009°50'0 0.0
2019-Sep-21 04:00N 54°28' E 009°50'0 0.0
2019-Sep-21 03:30N 54°28' E 009°50'0 0.0
2019-Sep-21 03:00N 54°28' E 009°50'0 0.0
2019-Sep-21 02:30N 54°28' E 009°50'0 0.0
2019-Sep-21 01:51N 54°28' E 009°50'0 0.0
2019-Sep-21 01:21N 54°28' E 009°50'0 0.0
2019-Sep-21 00:51N 54°28' E 009°50'0 0.0
2019-Sep-21 00:24N 54°28' E 009°50'0 0.0
2019-Sep-20 23:54N 54°28' E 009°50'0 0.0
2019-Sep-20 23:24N 54°28' E 009°50'0 0.0
2019-Sep-20 22:54N 54°28' E 009°50'0 0.0
2019-Sep-20 22:24N 54°28' E 009°50'0 0.0
2019-Sep-20 21:57N 54°28' E 009°50'0 0.0
2019-Sep-20 21:27N 54°28' E 009°50'0 0.0
2019-Sep-20 20:57N 54°28' E 009°50'0 0.0
2019-Sep-20 20:27N 54°28' E 009°50'0 0.0
2019-Sep-20 19:57N 54°28' E 009°50'0 0.0
2019-Sep-20 19:27N 54°28' E 009°50'0 0.0
2019-Sep-20 19:00N 54°28' E 009°50'0 0.0
2019-Sep-20 18:30N 54°28' E 009°50'0 0.0
2019-Sep-20 18:00N 54°28' E 009°50'0 0.0
2019-Sep-20 17:30N 54°28' E 009°50'0 0.0
2019-Sep-20 17:00N 54°28' E 009°50'0 0.0
2019-Sep-20 16:30N 54°28' E 009°50'0 0.0
2019-Sep-20 16:00N 54°28' E 009°50'2 3.2
2019-Sep-20 15:30N 54°28' E 009°53'3 5.9
2019-Sep-20 15:00N 54°29' E 009°58'3 5.5
2019-Sep-20 14:30N 54°30' E 010°02'3 6.2
2019-Sep-20 14:00N 54°32' E 010°06'3 6.1
2019-Sep-20 13:30N 54°35' E 010°10'3 6.2
2019-Sep-20 13:00N 54°37' E 010°14'3 5.8
2019-Sep-20 12:30N 54°39' E 010°17'2 3.6
2019-Sep-20 12:00N 54°40' E 010°19'2 4.3
2019-Sep-20 11:30N 54°42' E 010°21'2 4.0
2019-Sep-20 11:00N 54°43' E 010°23'2 4.1
2019-Sep-20 10:30N 54°45' E 010°26'2 3.2
2019-Sep-20 10:00N 54°46' E 010°27'1 2.8
2019-Sep-20 09:31N 54°48' E 010°28'1 2.8
2019-Sep-20 09:01N 54°49' E 010°29'1 2.9
2019-Sep-20 08:30N 54°50' E 010°31'1 2.9
2019-Sep-20 08:00N 54°51' E 010°31'0 0.1
2019-Sep-20 07:27N 54°51' E 010°31'0 0.0
2019-Sep-20 07:00N 54°51' E 010°31'0 0.0
2019-Sep-20 06:30N 54°51' E 010°31'0 0.0
2019-Sep-20 06:00N 54°51' E 010°31'0 0.0
2019-Sep-20 05:27N 54°51' E 010°31'0 0.0
2019-Sep-20 05:00N 54°51' E 010°31'0 0.0
2019-Sep-20 04:30N 54°51' E 010°31'0 0.0
2019-Sep-20 04:00N 54°51' E 010°31'0 0.0
2019-Sep-20 03:30N 54°51' E 010°31'0 0.0
2019-Sep-20 03:00N 54°51' E 010°31'0 0.0
2019-Sep-20 02:30N 54°51' E 010°31'0 0.0
2019-Sep-20 02:00N 54°51' E 010°31'0 0.0
2019-Sep-20 01:30N 54°51' E 010°31'0 0.0
2019-Sep-20 01:00N 54°51' E 010°31'0 0.0
2019-Sep-20 00:30N 54°51' E 010°31'0 0.0
2019-Sep-20 00:00N 54°51' E 010°31'0 0.0
2019-Sep-19 23:30N 54°51' E 010°31'0 0.0
2019-Sep-19 23:00N 54°51' E 010°31'0 0.0
2019-Sep-19 22:30N 54°51' E 010°31'0 0.0
2019-Sep-19 22:00N 54°51' E 010°31'0 0.0
2019-Sep-19 21:27N 54°51' E 010°31'0 0.0
2019-Sep-19 21:00N 54°51' E 010°31'0 0.0
2019-Sep-19 20:30N 54°51' E 010°31'0 0.0
2019-Sep-19 20:00N 54°51' E 010°31'0 0.0
2019-Sep-19 19:30N 54°51' E 010°31'0 0.0
2019-Sep-19 19:00N 54°51' E 010°31'0 0.0
2019-Sep-19 18:27N 54°51' E 010°31'0 0.0
2019-Sep-19 18:00N 54°51' E 010°31'0 0.0
2019-Sep-19 17:30N 54°51' E 010°31'0 0.0
2019-Sep-19 17:00N 54°51' E 010°31'0 0.0
2019-Sep-19 16:28N 54°51' E 010°31'0 0.8
2019-Sep-19 16:00N 54°51' E 010°32'2 2.9
2019-Sep-19 15:29N 54°50' E 010°32'2 3.8
2019-Sep-19 14:58N 54°48' E 010°31'2 4.1
2019-Sep-19 14:30N 54°46' E 010°29'2 3.6
2019-Sep-19 14:00N 54°45' E 010°28'2 3.8
2019-Sep-19 13:30N 54°43' E 010°27'2 3.9
2019-Sep-19 13:00N 54°41' E 010°25'2 4.4
2019-Sep-19 12:30N 54°39' E 010°23'2 4.1
2019-Sep-19 12:00N 54°38' E 010°21'2 4.1
2019-Sep-19 11:30N 54°36' E 010°20'2 3.3
2019-Sep-19 11:00N 54°34' E 010°18'2 3.6
2019-Sep-19 10:30N 54°33' E 010°17'2 3.9
2019-Sep-19 10:00N 54°31' E 010°16'2 3.6
2019-Sep-19 09:30N 54°29' E 010°14'2 3.5
2019-Sep-19 09:00N 54°28' E 010°13'1 2.8
2019-Sep-19 08:30N 54°26' E 010°13'1 2.3
2019-Sep-19 08:00N 54°25' E 010°12'1 2.2
2019-Sep-19 07:30N 54°24' E 010°13'0 0.0
2019-Sep-19 07:00N 54°24' E 010°13'0 0.0
2019-Sep-19 06:30N 54°24' E 010°13'0 0.0
2019-Sep-19 06:01N 54°24' E 010°13'0 0.0
2019-Sep-19 05:27N 54°24' E 010°13'0 0.0
2019-Sep-19 05:00N 54°24' E 010°13'0 0.0
2019-Sep-19 04:27N 54°24' E 010°13'0 0.0
2019-Sep-19 04:00N 54°24' E 010°13'0 0.0
2019-Sep-19 03:30N 54°24' E 010°13'0 0.0
2019-Sep-19 03:00N 54°24' E 010°13'0 0.0
2019-Sep-19 02:28N 54°24' E 010°13'0 0.0
2019-Sep-19 01:57N 54°24' E 010°13'0 0.0
2019-Sep-19 01:27N 54°24' E 010°13'0 0.0
2019-Sep-19 01:00N 54°24' E 010°13'0 0.0
2019-Sep-19 00:30N 54°24' E 010°13'0 0.0
2019-Sep-19 00:00N 54°24' E 010°13'0 0.0
2019-Sep-18 23:30N 54°24' E 010°13'0 0.0
2019-Sep-18 23:00N 54°24' E 010°13'0 0.0
2019-Sep-18 22:30N 54°24' E 010°13'0 0.0
2019-Sep-18 22:00N 54°24' E 010°13'0 0.0
2019-Sep-18 21:31N 54°24' E 010°13'0 0.0
2019-Sep-18 21:00N 54°24' E 010°13'0 0.0
2019-Sep-18 20:30N 54°24' E 010°13'0 0.0
2019-Sep-18 20:00N 54°24' E 010°13'0 0.0
2019-Sep-18 19:31N 54°24' E 010°13'0 0.0
2019-Sep-18 19:00N 54°24' E 010°13'0 0.0
2019-Sep-18 18:31N 54°24' E 010°13'0 0.0
2019-Sep-18 18:01N 54°24' E 010°13'0 0.0
2019-Sep-18 17:30N 54°24' E 010°13'0 0.0
2019-Sep-18 17:00N 54°24' E 010°13'0 0.0
2019-Sep-18 16:31N 54°24' E 010°13'0 0.0
2019-Sep-18 16:01N 54°24' E 010°13'0 0.0
2019-Sep-18 15:31N 54°24' E 010°13'0 0.0
2019-Sep-18 15:01N 54°24' E 010°13'0 0.1
2019-Sep-18 14:30N 54°24' E 010°13'2 3.1
2019-Sep-18 14:00N 54°26' E 010°13'1 1.0
2019-Sep-18 13:30N 54°26' E 010°12'1 2.5
2019-Sep-18 13:00N 54°25' E 010°12'2 3.1
2019-Sep-18 12:30N 54°23' E 010°12'2 3.3
2019-Sep-18 12:00N 54°22' E 010°10'1 1.4
2019-Sep-18 11:30N 54°22' E 010°09'0 0.0
2019-Sep-18 11:00N 54°22' E 010°09'1 1.2
2019-Sep-18 10:30N 54°22' E 010°08'2 3.3
2019-Sep-18 09:59N 54°22' E 010°05'3 7.2
2019-Sep-18 09:31N 54°21' E 009°59'4 7.4
2019-Sep-18 09:00N 54°21' E 009°53'4 7.2
2019-Sep-18 08:30N 54°21' E 009°47'3 7.0
2019-Sep-18 08:01N 54°19' E 009°43'2 4.0
2019-Sep-18 07:30N 54°18' E 009°40'0 0.0
2019-Sep-18 07:00N 54°18' E 009°40'0 0.0
2019-Sep-18 06:30N 54°18' E 009°40'0 0.0
2019-Sep-18 06:00N 54°18' E 009°40'0 0.0
2019-Sep-18 05:30N 54°18' E 009°40'0 0.0
2019-Sep-18 05:00N 54°18' E 009°40'0 0.0
2019-Sep-18 04:30N 54°18' E 009°40'0 0.0
2019-Sep-18 04:00N 54°18' E 009°40'0 0.0
2019-Sep-18 03:30N 54°18' E 009°40'0 0.0
2019-Sep-18 03:00N 54°18' E 009°40'0 0.0
2019-Sep-18 02:30N 54°18' E 009°40'0 0.0
2019-Sep-18 02:00N 54°18' E 009°40'0 0.0
2019-Sep-18 01:30N 54°18' E 009°40'0 0.0
2019-Sep-18 01:00N 54°18' E 009°40'0 0.0
2019-Sep-18 00:30N 54°18' E 009°40'0 0.0
2019-Sep-18 00:00N 54°18' E 009°40'0 0.0
2019-Sep-17 23:30N 54°18' E 009°40'0 0.0
2019-Sep-17 23:00N 54°18' E 009°40'0 0.0
2019-Sep-17 22:30N 54°18' E 009°40'0 0.0
2019-Sep-17 22:00N 54°18' E 009°40'0 0.0
2019-Sep-17 21:30N 54°18' E 009°40'0 0.0
2019-Sep-17 21:00N 54°18' E 009°40'0 0.0
2019-Sep-17 20:30N 54°18' E 009°40'0 0.0
2019-Sep-17 20:00N 54°18' E 009°40'0 0.0
2019-Sep-17 19:30N 54°18' E 009°40'0 0.0
2019-Sep-17 19:00N 54°18' E 009°40'0 0.0
2019-Sep-17 18:30N 54°18' E 009°40'0 0.0
2019-Sep-17 18:00N 54°18' E 009°40'0 0.0
2019-Sep-17 17:30N 54°18' E 009°40'1 2.3
2019-Sep-17 17:01N 54°17' E 009°39'3 6.9
2019-Sep-17 16:30N 54°14' E 009°36'4 7.1
2019-Sep-17 16:00N 54°11' E 009°32'3 6.6
2019-Sep-17 15:30N 54°10' E 009°26'3 6.7
2019-Sep-17 15:01N 54°09' E 009°21'4 6.9
2019-Sep-17 14:23N 54°05' E 009°19'3 6.9
2019-Sep-17 14:00N 54°02' E 009°18'4 7.2
2019-Sep-17 13:30N 53°59' E 009°16'4 7.5
2019-Sep-17 12:58N 53°55' E 009°12'3 5.8
2019-Sep-17 12:30N 53°54' E 009°09'0 0.2
2019-Sep-17 11:59N 53°53' E 009°09'1 1.5
2019-Sep-17 11:30N 53°53' E 009°10'1 2.6
2019-Sep-17 11:00N 53°53' E 009°12'2 3.4
2019-Sep-17 10:31N 53°53' E 009°15'2 5.0
2019-Sep-17 10:00N 53°52' E 009°19'3 5.5
2019-Sep-17 09:30N 53°50' E 009°22'4 8.1
2019-Sep-17 09:00N 53°46' E 009°24'4 7.7
2019-Sep-17 08:30N 53°43' E 009°29'4 8.8
2019-Sep-17 08:00N 53°39' E 009°31'4 8.8
2019-Sep-17 07:30N 53°36' E 009°36'4 8.4
2019-Sep-17 07:00N 53°34' E 009°43'4 7.7
2019-Sep-17 06:30N 53°33' E 009°49'3 6.4
2019-Sep-17 06:01N 53°33' E 009°54'1 1.3
2019-Sep-17 05:28N 53°33' E 009°56'0 0.0
2019-Sep-17 04:58N 53°33' E 009°56'0 0.0
2019-Sep-17 04:28N 53°33' E 009°56'0 0.0
2019-Sep-17 03:58N 53°33' E 009°56'0 0.0
2019-Sep-17 03:28N 53°33' E 009°56'0 0.0
2019-Sep-17 02:58N 53°33' E 009°56'0 0.0
2019-Sep-17 02:28N 53°33' E 009°56'0 0.0
2019-Sep-17 01:58N 53°33' E 009°56'0 0.0
2019-Sep-17 01:28N 53°33' E 009°56'0 0.0
2019-Sep-17 00:55N 53°33' E 009°56'0 0.0
2019-Sep-17 00:28N 53°33' E 009°56'0 0.0
2019-Sep-16 23:58N 53°33' E 009°56'0 0.0
2019-Sep-16 23:28N 53°33' E 009°56'0 0.0
2019-Sep-16 22:58N 53°33' E 009°56'0 0.0
2019-Sep-16 22:28N 53°33' E 009°56'0 0.0
2019-Sep-16 21:58N 53°33' E 009°56'0 0.0
2019-Sep-16 21:28N 53°33' E 009°56'0 0.0
2019-Sep-16 20:58N 53°33' E 009°56'0 0.0
2019-Sep-16 20:28N 53°33' E 009°56'0 0.0
2019-Sep-16 19:55N 53°33' E 009°56'0 0.0
2019-Sep-16 19:28N 53°33' E 009°56'0 0.0
2019-Sep-16 18:58N 53°33' E 009°56'0 0.0
2019-Sep-16 18:28N 53°33' E 009°56'0 0.0
2019-Sep-16 17:58N 53°33' E 009°56'0 0.0
2019-Sep-16 17:28N 53°33' E 009°56'0 0.0
2019-Sep-16 16:58N 53°33' E 009°56'0 0.0
2019-Sep-16 16:28N 53°33' E 009°56'0 0.0
2019-Sep-16 15:58N 53°33' E 009°56'0 0.0
2019-Sep-16 15:28N 53°33' E 009°56'0 0.0
2019-Sep-16 14:58N 53°33' E 009°56'0 0.0
2019-Sep-16 14:28N 53°33' E 009°56'0 0.0
2019-Sep-16 13:58N 53°33' E 009°56'0 0.0
2019-Sep-16 13:28N 53°33' E 009°56'0 0.0
2019-Sep-16 12:58N 53°33' E 009°56'0 0.0
2019-Sep-16 12:28N 53°33' E 009°56'0 0.0
2019-Sep-16 11:58N 53°33' E 009°56'0 0.0
2019-Sep-16 11:28N 53°33' E 009°56'0 0.0
2019-Sep-16 10:58N 53°33' E 009°56'0 0.0
2019-Sep-16 10:28N 53°33' E 009°56'0 0.0
2019-Sep-16 09:58N 53°33' E 009°56'0 0.0
2019-Sep-16 09:28N 53°33' E 009°56'0 0.0
2019-Sep-16 08:58N 53°33' E 009°56'0 0.0
2019-Sep-16 08:25N 53°33' E 009°56'0 0.0
2019-Sep-16 07:58N 53°33' E 009°56'0 0.0
2019-Sep-16 07:28N 53°33' E 009°56'0 0.0
2019-Sep-16 06:58N 53°33' E 009°56'0 0.0
2019-Sep-16 06:25N 53°33' E 009°56'0 0.0
2019-Sep-16 05:58N 53°33' E 009°56'0 0.0
2019-Sep-16 05:28N 53°33' E 009°56'0 0.0
2019-Sep-16 04:58N 53°33' E 009°56'0 0.0
2019-Sep-16 04:28N 53°33' E 009°56'0 0.0
2019-Sep-16 03:58N 53°33' E 009°56'0 0.0
2019-Sep-16 03:28N 53°33' E 009°56'0 0.0
2019-Sep-16 02:58N 53°33' E 009°56'0 0.0
2019-Sep-16 02:28N 53°33' E 009°56'0 0.0
2019-Sep-16 01:58N 53°33' E 009°56'0 0.0
2019-Sep-16 01:28N 53°33' E 009°56'0 0.0
2019-Sep-16 00:58N 53°33' E 009°56'0 0.0
2019-Sep-16 00:28N 53°33' E 009°56'0 0.0
2019-Sep-15 23:58N 53°33' E 009°56'0 0.0
2019-Sep-15 23:28N 53°33' E 009°56'0 0.0
2019-Sep-15 22:58N 53°33' E 009°56'0 0.0
2019-Sep-15 22:28N 53°33' E 009°56'0 0.0
2019-Sep-15 21:58N 53°33' E 009°56'0 0.0
2019-Sep-15 21:28N 53°33' E 009°56'0 0.0
2019-Sep-15 20:58N 53°33' E 009°56'0 0.0
2019-Sep-15 20:28N 53°33' E 009°56'0 0.0
2019-Sep-15 19:58N 53°33' E 009°56'0 0.0
2019-Sep-15 19:28N 53°33' E 009°56'0 0.0
2019-Sep-15 18:58N 53°33' E 009°56'0 0.2
2019-Sep-15 18:31N 53°33' E 009°56'1 1.8
2019-Sep-15 18:00N 53°33' E 009°57'0 0.8
2019-Sep-15 17:30N 53°32' E 009°57'1 2.5
2019-Sep-15 17:01N 53°32' E 009°54'2 3.3
2019-Sep-15 16:31N 53°33' E 009°52'2 3.7
2019-Sep-15 16:01N 53°33' E 009°49'1 1.2
2019-Sep-15 15:31N 53°33' E 009°50'2 4.3
2019-Sep-15 15:01N 53°33' E 009°53'2 4.8
2019-Sep-15 14:31N 53°33' E 009°57'0 0.1
2019-Sep-15 14:01N 53°33' E 009°57'0 0.0
2019-Sep-15 13:31N 53°33' E 009°57'0 0.0
2019-Sep-15 13:01N 53°33' E 009°57'0 0.8
2019-Sep-15 12:30N 53°33' E 009°58'2 3.4
2019-Sep-15 12:01N 53°32' E 009°55'3 5.0
2019-Sep-15 11:31N 53°33' E 009°51'2 4.3
2019-Sep-15 11:00N 53°33' E 009°47'2 3.7
2019-Sep-15 10:31N 53°33' E 009°50'3 6.0
2019-Sep-15 10:01N 53°33' E 009°55'1 2.0
2019-Sep-15 09:31N 53°32' E 009°57'1 1.2
2019-Sep-15 09:01N 53°33' E 009°58'1 1.3
2019-Sep-15 08:28N 53°33' E 009°57'1 1.2
2019-Sep-15 08:00N 53°33' E 009°56'0 0.3
2019-Sep-15 07:28N 53°33' E 009°56'0 0.0
2019-Sep-15 06:58N 53°33' E 009°56'0 0.0
2019-Sep-15 06:28N 53°33' E 009°56'0 0.0
2019-Sep-15 05:55N 53°33' E 009°56'0 0.0
2019-Sep-15 05:28N 53°33' E 009°56'0 0.0
2019-Sep-15 04:58N 53°33' E 009°56'0 0.0
2019-Sep-15 04:28N 53°33' E 009°56'0 0.0
2019-Sep-15 03:58N 53°33' E 009°56'0 0.0
2019-Sep-15 03:28N 53°33' E 009°56'0 0.0
2019-Sep-15 02:58N 53°33' E 009°56'0 0.0
2019-Sep-15 02:28N 53°33' E 009°56'0 0.0
2019-Sep-15 01:58N 53°33' E 009°56'0 0.0
2019-Sep-15 01:28N 53°33' E 009°56'0 0.0
2019-Sep-15 00:58N 53°33' E 009°56'0 0.0
2019-Sep-15 00:28N 53°33' E 009°56'0 0.0
2019-Sep-14 23:58N 53°33' E 009°56'0 0.0
2019-Sep-14 23:28N 53°33' E 009°56'0 0.0
2019-Sep-14 23:00N 53°33' E 009°56'0 0.3
2019-Sep-14 22:30N 53°33' E 009°56'1 2.6
2019-Sep-14 22:00N 53°33' E 009°58'1 2.2
2019-Sep-14 21:31N 53°32' E 009°56'2 3.6
2019-Sep-14 21:00N 53°32' E 009°53'1 2.3
2019-Sep-14 20:30N 53°33' E 009°51'3 5.1
2019-Sep-14 20:00N 53°33' E 009°55'2 4.2
2019-Sep-14 19:30N 53°32' E 009°59'1 1.2
2019-Sep-14 19:00N 53°32' E 009°60'0 0.2
2019-Sep-14 18:30N 53°32' E 010°00'0 0.2
2019-Sep-14 18:00N 53°32' E 009°60'1 1.4
2019-Sep-14 17:31N 53°32' E 009°59'1 2.1
2019-Sep-14 17:01N 53°33' E 009°57'0 0.4
2019-Sep-14 16:30N 53°33' E 009°57'0 0.4
2019-Sep-14 16:00N 53°33' E 009°57'1 1.2
2019-Sep-14 15:30N 53°32' E 009°56'2 4.0
2019-Sep-14 15:01N 53°32' E 009°53'1 1.6
2019-Sep-14 14:30N 53°33' E 009°52'2 4.7
2019-Sep-14 14:00N 53°33' E 009°55'2 4.8
2019-Sep-14 13:30N 53°32' E 009°59'1 2.8
2019-Sep-14 13:00N 53°33' E 009°57'0 0.1
2019-Sep-14 12:30N 53°33' E 009°57'1 2.1
2019-Sep-14 12:00N 53°32' E 009°56'2 5.0
2019-Sep-14 11:30N 53°33' E 009°51'2 4.8
2019-Sep-14 11:00N 53°33' E 009°48'0 0.8
2019-Sep-14 10:30N 53°33' E 009°48'3 6.5
2019-Sep-14 10:00N 53°33' E 009°54'2 4.5
2019-Sep-14 09:31N 53°32' E 009°57'1 2.9
2019-Sep-14 09:00N 53°32' E 009°60'2 2.9
2019-Sep-14 08:28N 53°33' E 009°57'1 1.5
2019-Sep-14 08:01N 53°32' E 009°56'0 0.6
2019-Sep-14 07:30N 53°33' E 009°56'0 0.0
2019-Sep-14 07:00N 53°33' E 009°56'0 0.0
2019-Sep-14 06:30N 53°33' E 009°56'0 0.0
2019-Sep-14 06:00N 53°33' E 009°56'0 0.0
2019-Sep-14 05:30N 53°33' E 009°56'0 0.0
2019-Sep-14 05:00N 53°33' E 009°56'0 0.0
2019-Sep-14 04:30N 53°33' E 009°56'0 0.0
2019-Sep-14 04:00N 53°33' E 009°56'0 0.0
2019-Sep-14 03:30N 53°33' E 009°56'0 0.0
2019-Sep-14 03:00N 53°33' E 009°56'0 0.0
2019-Sep-14 02:30N 53°33' E 009°56'0 0.0
2019-Sep-14 02:00N 53°33' E 009°56'0 0.0
2019-Sep-14 01:30N 53°33' E 009°56'0 0.0
2019-Sep-14 01:00N 53°33' E 009°56'0 0.0
2019-Sep-14 00:30N 53°33' E 009°56'0 0.0
2019-Sep-14 00:00N 53°33' E 009°56'0 0.0
2019-Sep-13 23:30N 53°33' E 009°56'0 0.0
2019-Sep-13 23:00N 53°33' E 009°56'0 0.0
2019-Sep-13 22:30N 53°33' E 009°56'0 0.0
2019-Sep-13 22:00N 53°33' E 009°56'1 1.9
2019-Sep-13 21:30N 53°33' E 009°57'0 0.0
2019-Sep-13 21:00N 53°33' E 009°57'0 0.0
2019-Sep-13 20:30N 53°33' E 009°57'0 0.5
2019-Sep-13 20:00N 53°33' E 009°58'1 1.4
2019-Sep-13 19:30N 53°32' E 009°56'3 5.6
2019-Sep-13 19:00N 53°33' E 009°52'2 4.9
2019-Sep-13 18:30N 53°33' E 009°48'2 4.8
2019-Sep-13 18:00N 53°33' E 009°52'3 6.9
2019-Sep-13 17:30N 53°33' E 009°57'0 0.5
2019-Sep-13 17:00N 53°33' E 009°57'0 0.1
2019-Sep-13 16:30N 53°33' E 009°57'0 0.2
2019-Sep-13 16:00N 53°33' E 009°57'0 0.0
2019-Sep-13 15:30N 53°33' E 009°57'1 2.4
2019-Sep-13 15:00N 53°32' E 009°55'1 2.5
2019-Sep-13 14:30N 53°33' E 009°53'2 4.8
2019-Sep-13 14:00N 53°33' E 009°57'1 3.0
2019-Sep-13 13:30N 53°32' E 009°60'2 3.6
2019-Sep-13 13:00N 53°32' E 009°57'0 0.8
2019-Sep-13 12:29N 53°33' E 009°57'0 0.6
2019-Sep-13 12:01N 53°33' E 009°58'1 2.5
2019-Sep-13 11:30N 53°33' E 009°56'0 0.1
2019-Sep-13 10:58N 53°33' E 009°56'0 0.0
2019-Sep-13 10:28N 53°33' E 009°56'0 0.0
2019-Sep-13 09:58N 53°33' E 009°56'0 0.0
2019-Sep-13 09:28N 53°33' E 009°56'0 0.0
2019-Sep-13 08:58N 53°33' E 009°56'0 0.0
2019-Sep-13 08:28N 53°33' E 009°56'0 0.0
2019-Sep-13 07:58N 53°33' E 009°56'0 0.0
2019-Sep-13 07:28N 53°33' E 009°56'0 0.0
2019-Sep-13 06:58N 53°33' E 009°56'0 0.0
2019-Sep-13 06:28N 53°33' E 009°56'0 0.0
2019-Sep-13 05:58N 53°33' E 009°56'0 0.0
2019-Sep-13 05:29N 53°33' E 009°56'0 0.0
2019-Sep-13 04:58N 53°33' E 009°56'0 0.0
2019-Sep-13 04:28N 53°33' E 009°56'0 0.0
2019-Sep-13 03:58N 53°33' E 009°56'0 0.0
2019-Sep-13 03:28N 53°33' E 009°56'0 0.0
2019-Sep-13 02:58N 53°33' E 009°56'0 0.0
2019-Sep-13 01:58N 53°33' E 009°56'0 0.0
2019-Sep-13 01:28N 53°33' E 009°56'0 0.0
2019-Sep-13 00:58N 53°33' E 009°56'0 0.1
2019-Sep-13 00:28N 53°33' E 009°56'0 0.1
2019-Sep-12 23:58N 53°33' E 009°56'0 0.0
2019-Sep-12 23:28N 53°33' E 009°56'0 0.0
2019-Sep-12 22:58N 53°33' E 009°56'0 0.0
2019-Sep-12 22:28N 53°33' E 009°56'0 0.0
2019-Sep-12 21:58N 53°33' E 009°56'0 0.0
2019-Sep-12 21:28N 53°33' E 009°56'0 0.0
2019-Sep-12 20:58N 53°33' E 009°56'0 0.0
2019-Sep-12 20:28N 53°33' E 009°56'0 0.0
2019-Sep-12 19:58N 53°33' E 009°56'0 0.0
2019-Sep-12 19:28N 53°33' E 009°56'0 0.0
2019-Sep-12 18:58N 53°33' E 009°56'0 0.0
2019-Sep-12 18:28N 53°33' E 009°56'0 0.0
2019-Sep-12 17:58N 53°33' E 009°56'0 0.0
2019-Sep-12 17:28N 53°33' E 009°56'0 0.0
2019-Sep-12 16:55N 53°33' E 009°56'0 0.0
2019-Sep-12 16:28N 53°33' E 009°56'0 0.0
2019-Sep-12 15:58N 53°33' E 009°56'0 0.0
2019-Sep-12 15:28N 53°33' E 009°56'0 0.0
2019-Sep-12 14:58N 53°33' E 009°56'0 0.0
2019-Sep-12 14:28N 53°33' E 009°56'0 0.0
2019-Sep-12 13:58N 53°33' E 009°56'0 0.0
2019-Sep-12 13:28N 53°33' E 009°56'0 0.0
2019-Sep-12 12:58N 53°33' E 009°56'0 0.0
2019-Sep-12 12:28N 53°33' E 009°56'0 0.0
2019-Sep-12 11:58N 53°33' E 009°56'0 0.0
2019-Sep-12 11:28N 53°33' E 009°56'0 0.0
2019-Sep-12 10:58N 53°33' E 009°56'0 0.0
2019-Sep-12 10:28N 53°33' E 009°56'0 0.0
2019-Sep-12 09:58N 53°33' E 009°56'0 0.0
2019-Sep-12 09:28N 53°33' E 009°56'0 0.0
2019-Sep-12 08:58N 53°33' E 009°56'0 0.0
2019-Sep-12 08:28N 53°33' E 009°56'0 0.0
2019-Sep-12 07:58N 53°33' E 009°56'0 0.0
2019-Sep-12 07:28N 53°33' E 009°56'0 0.0
2019-Sep-12 06:58N 53°33' E 009°56'0 0.0
2019-Sep-12 06:28N 53°33' E 009°56'0 0.0
2019-Sep-12 05:58N 53°33' E 009°56'0 0.0
2019-Sep-12 05:28N 53°33' E 009°56'0 0.0
2019-Sep-12 04:58N 53°33' E 009°56'0 0.0
2019-Sep-12 04:28N 53°33' E 009°56'0 0.0
2019-Sep-12 03:58N 53°33' E 009°56'0 0.0
2019-Sep-12 03:28N 53°33' E 009°56'0 0.0
2019-Sep-12 02:58N 53°33' E 009°56'0 0.0
2019-Sep-12 02:28N 53°33' E 009°56'0 0.0
2019-Sep-12 01:58N 53°33' E 009°56'0 0.0
2019-Sep-12 01:28N 53°33' E 009°56'0 0.0
2019-Sep-12 00:58N 53°33' E 009°56'0 0.0
2019-Sep-12 00:28N 53°33' E 009°56'0 0.0
2019-Sep-11 23:58N 53°33' E 009°56'0 0.0
2019-Sep-11 23:28N 53°33' E 009°56'0 0.0
2019-Sep-11 22:58N 53°33' E 009°56'0 0.0
2019-Sep-11 22:28N 53°33' E 009°56'0 0.0
2019-Sep-11 21:58N 53°33' E 009°56'0 0.0
2019-Sep-11 21:28N 53°33' E 009°56'0 0.0
2019-Sep-11 20:58N 53°33' E 009°56'0 0.0
2019-Sep-11 20:28N 53°33' E 009°56'0 0.0
2019-Sep-11 19:58N 53°33' E 009°56'0 0.0
2019-Sep-11 19:28N 53°33' E 009°56'0 0.0
2019-Sep-11 18:58N 53°33' E 009°56'0 0.0
2019-Sep-11 18:28N 53°33' E 009°56'0 0.0
2019-Sep-11 17:58N 53°33' E 009°56'  
Track history (hours):
 
Tides and Currents Weather Stations Pressure Air Temp Water Temp Dewpoint Dewpoint Depression Visibility Wind Speed Wind Dir Waves Ship Positions

Artemis (Netherlands)

Ship's website: http://www.tallship-company.com/artemis/gb_artemis.htm

Last reported at 2019-Sep-21 17:28 UTC. Time now 2019-Sep-21 17:43 UTC.
Position N 54°22' E 010°09'.

Length 59 m; draft 3.4 m.

Type: Sailing vessel. MMSI: 244875000.

Date/timePositionNaut miles runAvg speedWind from/ knotsBaromVisibWave heightAir tempDewpointWater temp
2019-Sep-21 17:28N 54°22' E 010°09'0 0.0
2019-Sep-21 16:58N 54°22' E 010°09'0 0.0
2019-Sep-21 16:28N 54°22' E 010°09'0 0.0
2019-Sep-21 15:58N 54°22' E 010°09'0 0.0
2019-Sep-21 15:30N 54°22' E 010°09'2 3.0
2019-Sep-21 15:00N 54°23' E 010°11'3 6.5
2019-Sep-21 14:30N 54°26' E 010°13'3 5.9
2019-Sep-21 14:00N 54°29' E 010°11'3 6.4
2019-Sep-21 13:30N 54°29' E 010°06'3 5.6
2019-Sep-21 13:00N 54°29' E 010°01'1 2.0
2019-Sep-21 12:30N 54°29' E 009°59'1 2.2
2019-Sep-21 12:00N 54°29' E 009°57'1 2.1
2019-Sep-21 11:30N 54°28' E 009°55'1 2.4
2019-Sep-21 11:00N 54°28' E 009°53'1 1.9
2019-Sep-21 10:30N 54°28' E 009°52'1 1.8
2019-Sep-21 10:00N 54°28' E 009°50'0 0.1
2019-Sep-21 09:30N 54°28' E 009°50'0 0.0
2019-Sep-21 09:00N 54°28' E 009°50'0 0.0
2019-Sep-21 08:30N 54°28' E 009°50'0 0.0
2019-Sep-21 08:00N 54°28' E 009°50'0 0.0
2019-Sep-21 07:30N 54°28' E 009°50'0 0.0
2019-Sep-21 07:00N 54°28' E 009°50'0 0.0
2019-Sep-21 06:30N 54°28' E 009°50'0 0.0
2019-Sep-21 06:00N 54°28' E 009°50'0 0.0
2019-Sep-21 05:30N 54°28' E 009°50'0 0.0
2019-Sep-21 05:00N 54°28' E 009°50'0 0.0
2019-Sep-21 04:30N 54°28' E 009°50'0 0.0
2019-Sep-21 04:00N 54°28' E 009°50'0 0.0
2019-Sep-21 03:30N 54°28' E 009°50'0 0.0
2019-Sep-21 03:00N 54°28' E 009°50'0 0.0
2019-Sep-21 02:30N 54°28' E 009°50'0 0.0
2019-Sep-21 01:51N 54°28' E 009°50'0 0.0
2019-Sep-21 01:21N 54°28' E 009°50'0 0.0
2019-Sep-21 00:51N 54°28' E 009°50'0 0.0
2019-Sep-21 00:24N 54°28' E 009°50'0 0.0
2019-Sep-20 23:54N 54°28' E 009°50'0 0.0
2019-Sep-20 23:24N 54°28' E 009°50'0 0.0
2019-Sep-20 22:54N 54°28' E 009°50'0 0.0
2019-Sep-20 22:24N 54°28' E 009°50'0 0.0
2019-Sep-20 21:57N 54°28' E 009°50'0 0.0
2019-Sep-20 21:27N 54°28' E 009°50'0 0.0
2019-Sep-20 20:57N 54°28' E 009°50'0 0.0
2019-Sep-20 20:27N 54°28' E 009°50'0 0.0
2019-Sep-20 19:57N 54°28' E 009°50'0 0.0
2019-Sep-20 19:27N 54°28' E 009°50'0 0.0
2019-Sep-20 19:00N 54°28' E 009°50'0 0.0
2019-Sep-20 18:30N 54°28' E 009°50'0 0.0
2019-Sep-20 18:00N 54°28' E 009°50'0 0.0
2019-Sep-20 17:30N 54°28' E 009°50'0 0.0
2019-Sep-20 17:00N 54°28' E 009°50'0 0.0
2019-Sep-20 16:30N 54°28' E 009°50'0 0.0
2019-Sep-20 16:00N 54°28' E 009°50'2 3.2
2019-Sep-20 15:30N 54°28' E 009°53'3 5.9
2019-Sep-20 15:00N 54°29' E 009°58'3 5.5
2019-Sep-20 14:30N 54°30' E 010°02'3 6.2
2019-Sep-20 14:00N 54°32' E 010°06'3 6.1
2019-Sep-20 13:30N 54°35' E 010°10'3 6.2
2019-Sep-20 13:00N 54°37' E 010°14'3 5.8
2019-Sep-20 12:30N 54°39' E 010°17'2 3.6
2019-Sep-20 12:00N 54°40' E 010°19'2 4.3
2019-Sep-20 11:30N 54°42' E 010°21'2 4.0
2019-Sep-20 11:00N 54°43' E 010°23'2 4.1
2019-Sep-20 10:30N 54°45' E 010°26'2 3.2
2019-Sep-20 10:00N 54°46' E 010°27'1 2.8
2019-Sep-20 09:31N 54°48' E 010°28'1 2.8
2019-Sep-20 09:01N 54°49' E 010°29'1 2.9
2019-Sep-20 08:30N 54°50' E 010°31'1 2.9
2019-Sep-20 08:00N 54°51' E 010°31'0 0.1
2019-Sep-20 07:27N 54°51' E 010°31'0 0.0
2019-Sep-20 07:00N 54°51' E 010°31'0 0.0
2019-Sep-20 06:30N 54°51' E 010°31'0 0.0
2019-Sep-20 06:00N 54°51' E 010°31'0 0.0
2019-Sep-20 05:27N 54°51' E 010°31'0 0.0
2019-Sep-20 05:00N 54°51' E 010°31'0 0.0
2019-Sep-20 04:30N 54°51' E 010°31'0 0.0
2019-Sep-20 04:00N 54°51' E 010°31'0 0.0
2019-Sep-20 03:30N 54°51' E 010°31'0 0.0
2019-Sep-20 03:00N 54°51' E 010°31'0 0.0
2019-Sep-20 02:30N 54°51' E 010°31'0 0.0
2019-Sep-20 02:00N 54°51' E 010°31'0 0.0
2019-Sep-20 01:30N 54°51' E 010°31'0 0.0
2019-Sep-20 01:00N 54°51' E 010°31'0 0.0
2019-Sep-20 00:30N 54°51' E 010°31'0 0.0
2019-Sep-20 00:00N 54°51' E 010°31'0 0.0
2019-Sep-19 23:30N 54°51' E 010°31'0 0.0
2019-Sep-19 23:00N 54°51' E 010°31'0 0.0
2019-Sep-19 22:30N 54°51' E 010°31'0 0.0
2019-Sep-19 22:00N 54°51' E 010°31'0 0.0
2019-Sep-19 21:27N 54°51' E 010°31'0 0.0
2019-Sep-19 21:00N 54°51' E 010°31'0 0.0
2019-Sep-19 20:30N 54°51' E 010°31'0 0.0
2019-Sep-19 20:00N 54°51' E 010°31'0 0.0
2019-Sep-19 19:30N 54°51' E 010°31'0 0.0
2019-Sep-19 19:00N 54°51' E 010°31'0 0.0
2019-Sep-19 18:27N 54°51' E 010°31'0 0.0
2019-Sep-19 18:00N 54°51' E 010°31'0 0.0
2019-Sep-19 17:30N 54°51' E 010°31'0 0.0
2019-Sep-19 17:00N 54°51' E 010°31'0 0.0
2019-Sep-19 16:28N 54°51' E 010°31'0 0.8
2019-Sep-19 16:00N 54°51' E 010°32'2 2.9
2019-Sep-19 15:29N 54°50' E 010°32'2 3.8
2019-Sep-19 14:58N 54°48' E 010°31'2 4.1
2019-Sep-19 14:30N 54°46' E 010°29'2 3.6
2019-Sep-19 14:00N 54°45' E 010°28'2 3.8
2019-Sep-19 13:30N 54°43' E 010°27'2 3.9
2019-Sep-19 13:00N 54°41' E 010°25'2 4.4
2019-Sep-19 12:30N 54°39' E 010°23'2 4.1
2019-Sep-19 12:00N 54°38' E 010°21'2 4.1
2019-Sep-19 11:30N 54°36' E 010°20'2 3.3
2019-Sep-19 11:00N 54°34' E 010°18'2 3.6
2019-Sep-19 10:30N 54°33' E 010°17'2 3.9
2019-Sep-19 10:00N 54°31' E 010°16'2 3.6
2019-Sep-19 09:30N 54°29' E 010°14'2 3.5
2019-Sep-19 09:00N 54°28' E 010°13'1 2.8
2019-Sep-19 08:30N 54°26' E 010°13'1 2.3
2019-Sep-19 08:00N 54°25' E 010°12'1 2.2
2019-Sep-19 07:30N 54°24' E 010°13'0 0.0
2019-Sep-19 07:00N 54°24' E 010°13'0 0.0
2019-Sep-19 06:30N 54°24' E 010°13'0 0.0
2019-Sep-19 06:01N 54°24' E 010°13'0 0.0
2019-Sep-19 05:27N 54°24' E 010°13'0 0.0
2019-Sep-19 05:00N 54°24' E 010°13'0 0.0
2019-Sep-19 04:27N 54°24' E 010°13'0 0.0
2019-Sep-19 04:00N 54°24' E 010°13'0 0.0
2019-Sep-19 03:30N 54°24' E 010°13'0 0.0
2019-Sep-19 03:00N 54°24' E 010°13'0 0.0
2019-Sep-19 02:28N 54°24' E 010°13'0 0.0
2019-Sep-19 01:57N 54°24' E 010°13'0 0.0
2019-Sep-19 01:27N 54°24' E 010°13'0 0.0
2019-Sep-19 01:00N 54°24' E 010°13'0 0.0
2019-Sep-19 00:30N 54°24' E 010°13'0 0.0
2019-Sep-19 00:00N 54°24' E 010°13'0 0.0
2019-Sep-18 23:30N 54°24' E 010°13'0 0.0
2019-Sep-18 23:00N 54°24' E 010°13'0 0.0
2019-Sep-18 22:30N 54°24' E 010°13'0 0.0
2019-Sep-18 22:00N 54°24' E 010°13'0 0.0
2019-Sep-18 21:31N 54°24' E 010°13'0 0.0
2019-Sep-18 21:00N 54°24' E 010°13'0 0.0
2019-Sep-18 20:30N 54°24' E 010°13'0 0.0
2019-Sep-18 20:00N 54°24' E 010°13'0 0.0
2019-Sep-18 19:31N 54°24' E 010°13'0 0.0
2019-Sep-18 19:00N 54°24' E 010°13'0 0.0
2019-Sep-18 18:31N 54°24' E 010°13'0 0.0
2019-Sep-18 18:01N 54°24' E 010°13'0 0.0
2019-Sep-18 17:30N 54°24' E 010°13'0 0.0
2019-Sep-18 17:00N 54°24' E 010°13'0 0.0
2019-Sep-18 16:31N 54°24' E 010°13'0 0.0
2019-Sep-18 16:01N 54°24' E 010°13'0 0.0
2019-Sep-18 15:31N 54°24' E 010°13'0 0.0
2019-Sep-18 15:01N 54°24' E 010°13'0 0.1
2019-Sep-18 14:30N 54°24' E 010°13'2 3.1
2019-Sep-18 14:00N 54°26' E 010°13'1 1.0
2019-Sep-18 13:30N 54°26' E 010°12'1 2.5
2019-Sep-18 13:00N 54°25' E 010°12'2 3.1
2019-Sep-18 12:30N 54°23' E 010°12'2 3.3
2019-Sep-18 12:00N 54°22' E 010°10'1 1.4
2019-Sep-18 11:30N 54°22' E 010°09'0 0.0
2019-Sep-18 11:00N 54°22' E 010°09'1 1.2
2019-Sep-18 10:30N 54°22' E 010°08'2 3.3
2019-Sep-18 09:59N 54°22' E 010°05'3 7.2
2019-Sep-18 09:31N 54°21' E 009°59'4 7.4
2019-Sep-18 09:00N 54°21' E 009°53'4 7.2
2019-Sep-18 08:30N 54°21' E 009°47'3 7.0
2019-Sep-18 08:01N 54°19' E 009°43'2 4.0
2019-Sep-18 07:30N 54°18' E 009°40'0 0.0
2019-Sep-18 07:00N 54°18' E 009°40'0 0.0
2019-Sep-18 06:30N 54°18' E 009°40'0 0.0
2019-Sep-18 06:00N 54°18' E 009°40'0 0.0
2019-Sep-18 05:30N 54°18' E 009°40'0 0.0
2019-Sep-18 05:00N 54°18' E 009°40'0 0.0
2019-Sep-18 04:30N 54°18' E 009°40'0 0.0
2019-Sep-18 04:00N 54°18' E 009°40'0 0.0
2019-Sep-18 03:30N 54°18' E 009°40'0 0.0
2019-Sep-18 03:00N 54°18' E 009°40'0 0.0
2019-Sep-18 02:30N 54°18' E 009°40'0 0.0
2019-Sep-18 02:00N 54°18' E 009°40'0 0.0
2019-Sep-18 01:30N 54°18' E 009°40'0 0.0
2019-Sep-18 01:00N 54°18' E 009°40'0 0.0
2019-Sep-18 00:30N 54°18' E 009°40'0 0.0
2019-Sep-18 00:00N 54°18' E 009°40'0 0.0
2019-Sep-17 23:30N 54°18' E 009°40'0 0.0
2019-Sep-17 23:00N 54°18' E 009°40'0 0.0
2019-Sep-17 22:30N 54°18' E 009°40'0 0.0
2019-Sep-17 22:00N 54°18' E 009°40'0 0.0
2019-Sep-17 21:30N 54°18' E 009°40'0 0.0
2019-Sep-17 21:00N 54°18' E 009°40'0 0.0
2019-Sep-17 20:30N 54°18' E 009°40'0 0.0
2019-Sep-17 20:00N 54°18' E 009°40'0 0.0
2019-Sep-17 19:30N 54°18' E 009°40'0 0.0
2019-Sep-17 19:00N 54°18' E 009°40'0 0.0
2019-Sep-17 18:30N 54°18' E 009°40'0 0.0
2019-Sep-17 18:00N 54°18' E 009°40'0 0.0
2019-Sep-17 17:30N 54°18' E 009°40'1 2.3
2019-Sep-17 17:01N 54°17' E 009°39'3 6.9
2019-Sep-17 16:30N 54°14' E 009°36'4 7.1
2019-Sep-17 16:00N 54°11' E 009°32'3 6.6
2019-Sep-17 15:30N 54°10' E 009°26'3 6.7
2019-Sep-17 15:01N 54°09' E 009°21'4 6.9
2019-Sep-17 14:23N 54°05' E 009°19'3 6.9
2019-Sep-17 14:00N 54°02' E 009°18'4 7.2
2019-Sep-17 13:30N 53°59' E 009°16'4 7.5
2019-Sep-17 12:58N 53°55' E 009°12'3 5.8
2019-Sep-17 12:30N 53°54' E 009°09'0 0.2
2019-Sep-17 11:59N 53°53' E 009°09'1 1.5
2019-Sep-17 11:30N 53°53' E 009°10'1 2.6
2019-Sep-17 11:00N 53°53' E 009°12'2 3.4
2019-Sep-17 10:31N 53°53' E 009°15'2 5.0
2019-Sep-17 10:00N 53°52' E 009°19'3 5.5
2019-Sep-17 09:30N 53°50' E 009°22'4 8.1
2019-Sep-17 09:00N 53°46' E 009°24'4 7.7
2019-Sep-17 08:30N 53°43' E 009°29'4 8.8
2019-Sep-17 08:00N 53°39' E 009°31'4 8.8
2019-Sep-17 07:30N 53°36' E 009°36'4 8.4
2019-Sep-17 07:00N 53°34' E 009°43'4 7.7
2019-Sep-17 06:30N 53°33' E 009°49'3 6.4
2019-Sep-17 06:01N 53°33' E 009°54'1 1.3
2019-Sep-17 05:28N 53°33' E 009°56'0 0.0
2019-Sep-17 04:58N 53°33' E 009°56'0 0.0
2019-Sep-17 04:28N 53°33' E 009°56'0 0.0
2019-Sep-17 03:58N 53°33' E 009°56'0 0.0
2019-Sep-17 03:28N 53°33' E 009°56'0 0.0
2019-Sep-17 02:58N 53°33' E 009°56'0 0.0
2019-Sep-17 02:28N 53°33' E 009°56'0 0.0
2019-Sep-17 01:58N 53°33' E 009°56'0 0.0
2019-Sep-17 01:28N 53°33' E 009°56'0 0.0
2019-Sep-17 00:55N 53°33' E 009°56'0 0.0
2019-Sep-17 00:28N 53°33' E 009°56'0 0.0
2019-Sep-16 23:58N 53°33' E 009°56'0 0.0
2019-Sep-16 23:28N 53°33' E 009°56'0 0.0
2019-Sep-16 22:58N 53°33' E 009°56'0 0.0
2019-Sep-16 22:28N 53°33' E 009°56'0 0.0
2019-Sep-16 21:58N 53°33' E 009°56'0 0.0
2019-Sep-16 21:28N 53°33' E 009°56'0 0.0
2019-Sep-16 20:58N 53°33' E 009°56'0 0.0
2019-Sep-16 20:28N 53°33' E 009°56'0 0.0
2019-Sep-16 19:55N 53°33' E 009°56'0 0.0
2019-Sep-16 19:28N 53°33' E 009°56'0 0.0
2019-Sep-16 18:58N 53°33' E 009°56'0 0.0
2019-Sep-16 18:28N 53°33' E 009°56'0 0.0
2019-Sep-16 17:58N 53°33' E 009°56'0 0.0
2019-Sep-16 17:28N 53°33' E 009°56'0 0.0
2019-Sep-16 16:58N 53°33' E 009°56'0 0.0
2019-Sep-16 16:28N 53°33' E 009°56'0 0.0
2019-Sep-16 15:58N 53°33' E 009°56'0 0.0
2019-Sep-16 15:28N 53°33' E 009°56'0 0.0
2019-Sep-16 14:58N 53°33' E 009°56'0 0.0
2019-Sep-16 14:28N 53°33' E 009°56'0 0.0
2019-Sep-16 13:58N 53°33' E 009°56'0 0.0
2019-Sep-16 13:28N 53°33' E 009°56'0 0.0
2019-Sep-16 12:58N 53°33' E 009°56'0 0.0
2019-Sep-16 12:28N 53°33' E 009°56'0 0.0
2019-Sep-16 11:58N 53°33' E 009°56'0 0.0
2019-Sep-16 11:28N 53°33' E 009°56'0 0.0
2019-Sep-16 10:58N 53°33' E 009°56'0 0.0
2019-Sep-16 10:28N 53°33' E 009°56'0 0.0
2019-Sep-16 09:58N 53°33' E 009°56'0 0.0
2019-Sep-16 09:28N 53°33' E 009°56'0 0.0
2019-Sep-16 08:58N 53°33' E 009°56'0 0.0
2019-Sep-16 08:25N 53°33' E 009°56'0 0.0
2019-Sep-16 07:58N 53°33' E 009°56'0 0.0
2019-Sep-16 07:28N 53°33' E 009°56'0 0.0
2019-Sep-16 06:58N 53°33' E 009°56'0 0.0
2019-Sep-16 06:25N 53°33' E 009°56'0 0.0
2019-Sep-16 05:58N 53°33' E 009°56'0 0.0
2019-Sep-16 05:28N 53°33' E 009°56'0 0.0
2019-Sep-16 04:58N 53°33' E 009°56'0 0.0
2019-Sep-16 04:28N 53°33' E 009°56'0 0.0
2019-Sep-16 03:58N 53°33' E 009°56'0 0.0
2019-Sep-16 03:28N 53°33' E 009°56'0 0.0
2019-Sep-16 02:58N 53°33' E 009°56'0 0.0
2019-Sep-16 02:28N 53°33' E 009°56'0 0.0
2019-Sep-16 01:58N 53°33' E 009°56'0 0.0
2019-Sep-16 01:28N 53°33' E 009°56'0 0.0
2019-Sep-16 00:58N 53°33' E 009°56'0 0.0
2019-Sep-16 00:28N 53°33' E 009°56'0 0.0
2019-Sep-15 23:58N 53°33' E 009°56'0 0.0
2019-Sep-15 23:28N 53°33' E 009°56'0 0.0
2019-Sep-15 22:58N 53°33' E 009°56'0 0.0
2019-Sep-15 22:28N 53°33' E 009°56'0 0.0
2019-Sep-15 21:58N 53°33' E 009°56'0 0.0
2019-Sep-15 21:28N 53°33' E 009°56'0 0.0
2019-Sep-15 20:58N 53°33' E 009°56'0 0.0
2019-Sep-15 20:28N 53°33' E 009°56'0 0.0
2019-Sep-15 19:58N 53°33' E 009°56'0 0.0
2019-Sep-15 19:28N 53°33' E 009°56'0 0.0
2019-Sep-15 18:58N 53°33' E 009°56'0 0.2
2019-Sep-15 18:31N 53°33' E 009°56'1 1.8
2019-Sep-15 18:00N 53°33' E 009°57'0 0.8
2019-Sep-15 17:30N 53°32' E 009°57'1 2.5
2019-Sep-15 17:01N 53°32' E 009°54'2 3.3
2019-Sep-15 16:31N 53°33' E 009°52'2 3.7
2019-Sep-15 16:01N 53°33' E 009°49'1 1.2
2019-Sep-15 15:31N 53°33' E 009°50'2 4.3
2019-Sep-15 15:01N 53°33' E 009°53'2 4.8
2019-Sep-15 14:31N 53°33' E 009°57'0 0.1
2019-Sep-15 14:01N 53°33' E 009°57'0 0.0
2019-Sep-15 13:31N 53°33' E 009°57'0 0.0
2019-Sep-15 13:01N 53°33' E 009°57'0 0.8
2019-Sep-15 12:30N 53°33' E 009°58'2 3.4
2019-Sep-15 12:01N 53°32' E 009°55'3 5.0
2019-Sep-15 11:31N 53°33' E 009°51'2 4.3
2019-Sep-15 11:00N 53°33' E 009°47'2 3.7
2019-Sep-15 10:31N 53°33' E 009°50'3 6.0
2019-Sep-15 10:01N 53°33' E 009°55'1 2.0
2019-Sep-15 09:31N 53°32' E 009°57'1 1.2
2019-Sep-15 09:01N 53°33' E 009°58'1 1.3
2019-Sep-15 08:28N 53°33' E 009°57'1 1.2
2019-Sep-15 08:00N 53°33' E 009°56'0 0.3
2019-Sep-15 07:28N 53°33' E 009°56'0 0.0
2019-Sep-15 06:58N 53°33' E 009°56'0 0.0
2019-Sep-15 06:28N 53°33' E 009°56'0 0.0
2019-Sep-15 05:55N 53°33' E 009°56'0 0.0
2019-Sep-15 05:28N 53°33' E 009°56'0 0.0
2019-Sep-15 04:58N 53°33' E 009°56'0 0.0
2019-Sep-15 04:28N 53°33' E 009°56'0 0.0
2019-Sep-15 03:58N 53°33' E 009°56'0 0.0
2019-Sep-15 03:28N 53°33' E 009°56'0 0.0
2019-Sep-15 02:58N 53°33' E 009°56'0 0.0
2019-Sep-15 02:28N 53°33' E 009°56'0 0.0
2019-Sep-15 01:58N 53°33' E 009°56'0 0.0
2019-Sep-15 01:28N 53°33' E 009°56'0 0.0
2019-Sep-15 00:58N 53°33' E 009°56'0 0.0
2019-Sep-15 00:28N 53°33' E 009°56'0 0.0
2019-Sep-14 23:58N 53°33' E 009°56'0 0.0
2019-Sep-14 23:28N 53°33' E 009°56'0 0.0
2019-Sep-14 23:00N 53°33' E 009°56'0 0.3
2019-Sep-14 22:30N 53°33' E 009°56'1 2.6
2019-Sep-14 22:00N 53°33' E 009°58'1 2.2
2019-Sep-14 21:31N 53°32' E 009°56'2 3.6
2019-Sep-14 21:00N 53°32' E 009°53'1 2.3
2019-Sep-14 20:30N 53°33' E 009°51'3 5.1
2019-Sep-14 20:00N 53°33' E 009°55'2 4.2
2019-Sep-14 19:30N 53°32' E 009°59'1 1.2
2019-Sep-14 19:00N 53°32' E 009°60'0 0.2
2019-Sep-14 18:30N 53°32' E 010°00'0 0.2
2019-Sep-14 18:00N 53°32' E 009°60'1 1.4
2019-Sep-14 17:31N 53°32' E 009°59'1 2.1
2019-Sep-14 17:01N 53°33' E 009°57'0 0.4
2019-Sep-14 16:30N 53°33' E 009°57'0 0.4
2019-Sep-14 16:00N 53°33' E 009°57'1 1.2
2019-Sep-14 15:30N 53°32' E 009°56'2 4.0
2019-Sep-14 15:01N 53°32' E 009°53'1 1.6
2019-Sep-14 14:30N 53°33' E 009°52'2 4.7
2019-Sep-14 14:00N 53°33' E 009°55'2 4.8
2019-Sep-14 13:30N 53°32' E 009°59'1 2.8
2019-Sep-14 13:00N 53°33' E 009°57'0 0.1
2019-Sep-14 12:30N 53°33' E 009°57'1 2.1
2019-Sep-14 12:00N 53°32' E 009°56'2 5.0
2019-Sep-14 11:30N 53°33' E 009°51'2 4.8
2019-Sep-14 11:00N 53°33' E 009°48'0 0.8
2019-Sep-14 10:30N 53°33' E 009°48'3 6.5
2019-Sep-14 10:00N 53°33' E 009°54'2 4.5
2019-Sep-14 09:31N 53°32' E 009°57'1 2.9
2019-Sep-14 09:00N 53°32' E 009°60'2 2.9
2019-Sep-14 08:28N 53°33' E 009°57'1 1.5
2019-Sep-14 08:01N 53°32' E 009°56'0 0.6
2019-Sep-14 07:30N 53°33' E 009°56'0 0.0
2019-Sep-14 07:00N 53°33' E 009°56'0 0.0
2019-Sep-14 06:30N 53°33' E 009°56'0 0.0
2019-Sep-14 06:00N 53°33' E 009°56'0 0.0
2019-Sep-14 05:30N 53°33' E 009°56'0 0.0
2019-Sep-14 05:00N 53°33' E 009°56'0 0.0
2019-Sep-14 04:30N 53°33' E 009°56'0 0.0
2019-Sep-14 04:00N 53°33' E 009°56'0 0.0
2019-Sep-14 03:30N 53°33' E 009°56'0 0.0
2019-Sep-14 03:00N 53°33' E 009°56'0 0.0
2019-Sep-14 02:30N 53°33' E 009°56'0 0.0
2019-Sep-14 02:00N 53°33' E 009°56'0 0.0
2019-Sep-14 01:30N 53°33' E 009°56'0 0.0
2019-Sep-14 01:00N 53°33' E 009°56'0 0.0
2019-Sep-14 00:30N 53°33' E 009°56'0 0.0
2019-Sep-14 00:00N 53°33' E 009°56'0 0.0
2019-Sep-13 23:30N 53°33' E 009°56'0 0.0
2019-Sep-13 23:00N 53°33' E 009°56'0 0.0
2019-Sep-13 22:30N 53°33' E 009°56'0 0.0
2019-Sep-13 22:00N 53°33' E 009°56'1 1.9
2019-Sep-13 21:30N 53°33' E 009°57'0 0.0
2019-Sep-13 21:00N 53°33' E 009°57'0 0.0
2019-Sep-13 20:30N 53°33' E 009°57'0 0.5
2019-Sep-13 20:00N 53°33' E 009°58'1 1.4
2019-Sep-13 19:30N 53°32' E 009°56'3 5.6
2019-Sep-13 19:00N 53°33' E 009°52'2 4.9
2019-Sep-13 18:30N 53°33' E 009°48'2 4.8
2019-Sep-13 18:00N 53°33' E 009°52'3 6.9
2019-Sep-13 17:30N 53°33' E 009°57'0 0.5
2019-Sep-13 17:00N 53°33' E 009°57'0 0.1
2019-Sep-13 16:30N 53°33' E 009°57'0 0.2
2019-Sep-13 16:00N 53°33' E 009°57'0 0.0
2019-Sep-13 15:30N 53°33' E 009°57'1 2.4
2019-Sep-13 15:00N 53°32' E 009°55'1 2.5
2019-Sep-13 14:30N 53°33' E 009°53'2 4.8
2019-Sep-13 14:00N 53°33' E 009°57'1 3.0
2019-Sep-13 13:30N 53°32' E 009°60'2 3.6
2019-Sep-13 13:00N 53°32' E 009°57'0 0.8
2019-Sep-13 12:29N 53°33' E 009°57'0 0.6
2019-Sep-13 12:01N 53°33' E 009°58'1 2.5
2019-Sep-13 11:30N 53°33' E 009°56'0 0.1
2019-Sep-13 10:58N 53°33' E 009°56'0 0.0
2019-Sep-13 10:28N 53°33' E 009°56'0 0.0
2019-Sep-13 09:58N 53°33' E 009°56'0 0.0
2019-Sep-13 09:28N 53°33' E 009°56'0 0.0
2019-Sep-13 08:58N 53°33' E 009°56'0 0.0
2019-Sep-13 08:28N 53°33' E 009°56'0 0.0
2019-Sep-13 07:58N 53°33' E 009°56'0 0.0
2019-Sep-13 07:28N 53°33' E 009°56'0 0.0
2019-Sep-13 06:58N 53°33' E 009°56'0 0.0
2019-Sep-13 06:28N 53°33' E 009°56'0 0.0
2019-Sep-13 05:58N 53°33' E 009°56'0 0.0
2019-Sep-13 05:29N 53°33' E 009°56'0 0.0
2019-Sep-13 04:58N 53°33' E 009°56'0 0.0
2019-Sep-13 04:28N 53°33' E 009°56'0 0.0
2019-Sep-13 03:58N 53°33' E 009°56'0 0.0
2019-Sep-13 03:28N 53°33' E 009°56'0 0.0
2019-Sep-13 02:58N 53°33' E 009°56'0 0.0
2019-Sep-13 01:58N 53°33' E 009°56'0 0.0
2019-Sep-13 01:28N 53°33' E 009°56'0 0.0
2019-Sep-13 00:58N 53°33' E 009°56'0 0.1
2019-Sep-13 00:28N 53°33' E 009°56'0 0.1
2019-Sep-12 23:58N 53°33' E 009°56'0 0.0
2019-Sep-12 23:28N 53°33' E 009°56'0 0.0
2019-Sep-12 22:58N 53°33' E 009°56'0 0.0
2019-Sep-12 22:28N 53°33' E 009°56'0 0.0
2019-Sep-12 21:58N 53°33' E 009°56'0 0.0
2019-Sep-12 21:28N 53°33' E 009°56'0 0.0
2019-Sep-12 20:58N 53°33' E 009°56'0 0.0
2019-Sep-12 20:28N 53°33' E 009°56'0 0.0
2019-Sep-12 19:58N 53°33' E 009°56'0 0.0
2019-Sep-12 19:28N 53°33' E 009°56'0 0.0
2019-Sep-12 18:58N 53°33' E 009°56'0 0.0
2019-Sep-12 18:28N 53°33' E 009°56'0 0.0
2019-Sep-12 17:58N 53°33' E 009°56'0 0.0
2019-Sep-12 17:28N 53°33' E 009°56'0 0.0
2019-Sep-12 16:55N 53°33' E 009°56'0 0.0
2019-Sep-12 16:28N 53°33' E 009°56'0 0.0
2019-Sep-12 15:58N 53°33' E 009°56'0 0.0
2019-Sep-12 15:28N 53°33' E 009°56'0 0.0
2019-Sep-12 14:58N 53°33' E 009°56'0 0.0
2019-Sep-12 14:28N 53°33' E 009°56'0 0.0
2019-Sep-12 13:58N 53°33' E 009°56'0 0.0
2019-Sep-12 13:28N 53°33' E 009°56'0 0.0
2019-Sep-12 12:58N 53°33' E 009°56'0 0.0
2019-Sep-12 12:28N 53°33' E 009°56'0 0.0
2019-Sep-12 11:58N 53°33' E 009°56'0 0.0
2019-Sep-12 11:28N 53°33' E 009°56'0 0.0
2019-Sep-12 10:58N 53°33' E 009°56'0 0.0
2019-Sep-12 10:28N 53°33' E 009°56'0 0.0
2019-Sep-12 09:58N 53°33' E 009°56'0 0.0
2019-Sep-12 09:28N 53°33' E 009°56'0 0.0
2019-Sep-12 08:58N 53°33' E 009°56'0 0.0
2019-Sep-12 08:28N 53°33' E 009°56'0 0.0
2019-Sep-12 07:58N 53°33' E 009°56'0 0.0
2019-Sep-12 07:28N 53°33' E 009°56'0 0.0
2019-Sep-12 06:58N 53°33' E 009°56'0 0.0
2019-Sep-12 06:28N 53°33' E 009°56'0 0.0
2019-Sep-12 05:58N 53°33' E 009°56'0 0.0
2019-Sep-12 05:28N 53°33' E 009°56'0 0.0
2019-Sep-12 04:58N 53°33' E 009°56'0 0.0
2019-Sep-12 04:28N 53°33' E 009°56'0 0.0
2019-Sep-12 03:58N 53°33' E 009°56'0 0.0
2019-Sep-12 03:28N 53°33' E 009°56'0 0.0
2019-Sep-12 02:58N 53°33' E 009°56'0 0.0
2019-Sep-12 02:28N 53°33' E 009°56'0 0.0
2019-Sep-12 01:58N 53°33' E 009°56'0 0.0
2019-Sep-12 01:28N 53°33' E 009°56'0 0.0
2019-Sep-12 00:58N 53°33' E 009°56'0 0.0
2019-Sep-12 00:28N 53°33' E 009°56'0 0.0
2019-Sep-11 23:58N 53°33' E 009°56'0 0.0
2019-Sep-11 23:28N 53°33' E 009°56'0 0.0
2019-Sep-11 22:58N 53°33' E 009°56'0 0.0
2019-Sep-11 22:28N 53°33' E 009°56'0 0.0
2019-Sep-11 21:58N 53°33' E 009°56'0 0.0
2019-Sep-11 21:28N 53°33' E 009°56'0 0.0
2019-Sep-11 20:58N 53°33' E 009°56'0 0.0
2019-Sep-11 20:28N 53°33' E 009°56'0 0.0
2019-Sep-11 19:58N 53°33' E 009°56'0 0.0
2019-Sep-11 19:28N 53°33' E 009°56'0 0.0
2019-Sep-11 18:58N 53°33' E 009°56'0 0.0
2019-Sep-11 18:28N 53°33' E 009°56'0 0.0
2019-Sep-11 17:58N 53°33' E 009°56'  

Dump ship's entire track history